Time;durP1;ratioP1;P1;durP2;ratioP2;P2;SDS_P1;SDS_P2;PMS_P1;PMS_P2;Temp;Humidity;BMP_temperature;BMP_pressure;BME280_temperature;BME280_humidity;BME280_pressure;Samples;Min_cycle;Max_cycle;Signal;HPM_P1;HPM_P2
2024/04/03 00:00:29;;;;;;;6.80;2.33;;;11.20;99.90;;;;;;5034023;28;20432;-68
2024/04/03 00:02:55;;;;;;;3.13;2.07;;;11.20;99.90;;;;;;5034615;28;20424;-68
2024/04/03 00:05:20;;;;;;;5.30;2.40;;;11.20;99.90;;;;;;5033805;28;20651;-70
2024/04/03 00:07:46;;;;;;;3.00;2.07;;;11.20;99.90;;;;;;5034679;28;20210;-72
2024/04/03 00:10:13;;;;;;;3.40;2.07;;;11.20;99.90;;;;;;5034458;28;20316;-70
2024/04/03 00:12:39;;;;;;;4.10;1.77;;;11.20;99.90;;;;;;5033571;28;20277;-67
2024/04/03 00:15:05;;;;;;;2.60;2.10;;;11.20;99.90;;;;;;5034772;28;20516;-73
2024/04/03 00:17:31;;;;;;;2.80;1.97;;;11.20;99.90;;;;;;5066322;28;20994;-72
2024/04/03 00:19:57;;;;;;;4.60;2.67;;;11.20;99.90;;;;;;5033943;28;20460;-68
2024/04/03 00:22:22;;;;;;;4.73;2.33;;;11.20;99.90;;;;;;5033575;28;20485;-72
2024/04/03 00:24:48;;;;;;;4.27;2.53;;;11.20;99.90;;;;;;5034496;28;20193;-72
2024/04/03 00:27:15;;;;;;;3.70;2.47;;;11.20;99.90;;;;;;5033996;28;20178;-70
2024/04/03 00:29:48;;;;;;;3.63;2.00;;;11.10;99.90;;;;;;5033651;28;20197;-72
2024/04/03 00:32:14;;;;;;;3.53;2.23;;;11.10;99.90;;;;;;5034497;28;20425;-72
2024/04/03 00:34:40;;;;;;;3.63;2.80;;;11.00;99.90;;;;;;5034494;28;20519;-73
2024/04/03 00:37:06;;;;;;;2.50;2.13;;;11.10;99.90;;;;;;5032761;28;20444;-67
2024/04/03 00:39:36;;;;;;;2.63;2.30;;;11.10;99.90;;;;;;5033391;28;21247;-73
2024/04/03 00:42:02;;;;;;;3.00;1.90;;;11.00;99.90;;;;;;5033227;28;20954;-71
2024/04/03 00:44:27;;;;;;;3.93;2.03;;;11.00;99.90;;;;;;5033709;28;20489;-71
2024/04/03 00:46:54;;;;;;;5.23;2.23;;;11.00;99.90;;;;;;5034391;28;20910;-73
2024/04/03 00:49:23;;;;;;;4.60;2.13;;;11.10;99.90;;;;;;5066129;28;20220;-71
2024/04/03 00:51:49;;;;;;;4.90;2.23;;;11.10;99.90;;;;;;5034080;28;20426;-68
2024/04/03 00:54:19;;;;;;;3.87;2.73;;;11.10;99.90;;;;;;5034117;28;20433;-69
2024/04/03 00:56:45;;;;;;;2.33;2.13;;;11.10;99.90;;;;;;5034539;28;20428;-68
2024/04/03 00:59:12;;;;;;;3.10;2.23;;;11.10;99.90;;;;;;5033284;28;20912;-72
2024/04/03 01:01:37;;;;;;;1.80;1.70;;;11.00;99.90;;;;;;5033991;28;20195;-70
2024/04/03 01:04:03;;;;;;;7.00;2.20;;;11.10;99.90;;;;;;5034095;28;20439;-73
2024/04/03 01:06:29;;;;;;;4.80;2.20;;;11.00;99.90;;;;;;5034743;28;21163;-72
2024/04/03 01:08:55;;;;;;;3.10;1.93;;;11.10;99.90;;;;;;5037316;28;20213;-70
2024/04/03 01:11:21;;;;;;;3.27;2.40;;;11.10;99.90;;;;;;5036909;28;20194;-69
2024/04/03 01:13:47;;;;;;;2.40;2.10;;;11.10;99.90;;;;;;5038107;28;20188;-71
2024/04/03 01:16:12;;;;;;;2.87;1.93;;;11.10;99.90;;;;;;5036877;28;20437;-69
2024/04/03 01:18:38;;;;;;;5.03;2.53;;;11.10;99.90;;;;;;5037585;28;20775;-70
2024/04/03 01:21:04;;;;;;;4.63;2.10;;;11.00;99.90;;;;;;5037177;28;20190;-69
2024/04/03 01:23:29;;;;;;;2.93;2.27;;;11.10;99.90;;;;;;5037405;28;20193;-73
2024/04/03 01:25:55;;;;;;;3.27;2.30;;;11.10;99.90;;;;;;5037378;28;20197;-70
2024/04/03 01:28:22;;;;;;;2.87;2.40;;;11.10;99.90;;;;;;5036560;28;20832;-69
2024/04/03 01:30:49;;;;;;;4.30;2.33;;;11.10;99.90;;;;;;5037691;28;20198;-68
2024/04/03 01:33:15;;;;;;;4.40;2.40;;;11.10;99.90;;;;;;5036498;28;20436;-70
2024/04/03 01:35:41;;;;;;;4.30;2.70;;;11.10;99.90;;;;;;5037515;28;20425;-68
2024/04/03 01:38:07;;;;;;;3.00;2.70;;;11.20;99.90;;;;;;5036653;28;20922;-71
2024/04/03 01:40:32;;;;;;;2.73;2.23;;;11.10;99.90;;;;;;5036998;28;20233;-67
2024/04/03 01:42:58;;;;;;;3.33;2.40;;;11.10;99.90;;;;;;5042913;28;20452;-68
2024/04/03 01:45:24;;;;;;;3.60;2.23;;;11.10;99.90;;;;;;5036511;28;20186;-70
2024/04/03 01:47:50;;;;;;;6.43;2.57;;;11.10;99.90;;;;;;5036779;28;20425;-69
2024/04/03 01:50:20;;;;;;;7.50;2.97;;;11.20;99.90;;;;;;5036338;28;20243;-69
2024/04/03 01:52:46;;;;;;;3.93;3.00;;;11.10;99.90;;;;;;5036823;28;20188;-68
2024/04/03 01:55:12;;;;;;;4.00;3.20;;;11.20;99.90;;;;;;5033825;28;20490;-69
2024/04/03 01:57:38;;;;;;;5.40;3.40;;;11.10;99.90;;;;;;5035620;28;20466;-72
2024/04/03 02:00:05;;;;;;;2.70;2.50;;;11.10;99.90;;;;;;5036502;28;20469;-69
2024/04/03 02:02:31;;;;;;;4.50;3.00;;;11.10;99.90;;;;;;5067052;28;20186;-74
2024/04/03 02:04:56;;;;;;;4.73;2.90;;;11.10;99.90;;;;;;5036819;28;20432;-70
2024/04/03 02:07:22;;;;;;;4.40;2.90;;;11.10;99.90;;;;;;5035975;28;20225;-71
2024/04/03 02:09:49;;;;;;;3.50;2.83;;;11.10;99.90;;;;;;5037144;28;20234;-72
2024/04/03 02:12:15;;;;;;;3.43;2.80;;;11.10;99.90;;;;;;5035866;28;20846;-69
2024/04/03 02:14:40;;;;;;;2.83;2.60;;;11.10;99.90;;;;;;5036678;28;20187;-72
2024/04/03 02:17:06;;;;;;;5.90;2.77;;;11.10;99.90;;;;;;5035397;28;20868;-71
2024/04/03 02:19:32;;;;;;;3.23;2.33;;;11.10;99.90;;;;;;5037412;28;20292;-68
2024/04/03 02:21:57;;;;;;;3.50;2.57;;;11.10;99.90;;;;;;5036477;28;20197;-69
2024/04/03 02:24:23;;;;;;;4.20;2.40;;;11.10;99.90;;;;;;5036394;28;20186;-68
2024/04/03 02:26:49;;;;;;;3.87;2.30;;;11.20;99.90;;;;;;5036414;28;20633;-71
2024/04/03 02:29:14;;;;;;;2.13;1.93;;;11.20;99.90;;;;;;5035827;28;20199;-72
2024/04/03 02:31:40;;;;;;;2.77;2.30;;;11.20;99.90;;;;;;5036467;28;20663;-70
2024/04/03 02:34:07;;;;;;;2.80;1.93;;;11.20;99.90;;;;;;5035843;28;20228;-68
2024/04/03 02:36:33;;;;;;;3.30;2.47;;;11.10;99.90;;;;;;5036206;28;20485;-70
2024/04/03 02:38:59;;;;;;;3.80;1.80;;;11.10;99.90;;;;;;5036387;28;20471;-68
2024/04/03 02:41:25;;;;;;;3.97;2.10;;;11.10;99.90;;;;;;5035907;28;20189;-71
2024/04/03 02:43:51;;;;;;;3.93;1.87;;;11.10;99.90;;;;;;5036545;28;20186;-71
2024/04/03 02:46:17;;;;;;;2.30;2.10;;;11.10;99.90;;;;;;5035362;28;20258;-72
2024/04/03 02:48:42;;;;;;;2.80;1.93;;;11.10;99.90;;;;;;5035144;28;20832;-71
2024/04/03 02:51:12;;;;;;;2.67;1.83;;;11.20;99.90;;;;;;5034760;28;20198;-69
2024/04/03 02:53:38;;;;;;;4.47;2.47;;;11.10;99.90;;;;;;5035527;28;20192;-71
2024/04/03 02:56:07;;;;;;;2.50;2.17;;;11.20;99.90;;;;;;5035022;28;20437;-70
2024/04/03 02:58:34;;;;;;;3.70;2.10;;;11.20;99.90;;;;;;5036264;28;20501;-70
2024/04/03 03:01:00;;;;;;;5.37;1.97;;;11.20;99.90;;;;;;5035566;28;20498;-71
2024/04/03 03:03:26;;;;;;;3.70;2.37;;;11.20;99.90;;;;;;5036392;28;20873;-71
2024/04/03 03:05:53;;;;;;;4.93;2.70;;;11.20;99.90;;;;;;5033836;28;20555;-70
2024/04/03 03:08:20;;;;;;;3.50;2.47;;;11.20;99.90;;;;;;5034746;28;20456;-69
2024/04/03 03:10:45;;;;;;;3.50;2.40;;;11.20;99.90;;;;;;5035334;28;20455;-70
2024/04/03 03:13:11;;;;;;;4.20;2.67;;;11.20;99.90;;;;;;5035071;28;21082;-71
2024/04/03 03:15:37;;;;;;;4.30;2.40;;;11.20;99.90;;;;;;5035354;28;20570;-69
2024/04/03 03:18:02;;;;;;;2.37;2.17;;;11.20;99.90;;;;;;5040153;28;20177;-70
2024/04/03 03:20:28;;;;;;;5.63;2.43;;;11.20;99.90;;;;;;5033945;28;20225;-71
2024/04/03 03:22:54;;;;;;;6.00;2.70;;;11.20;99.90;;;;;;5035583;28;20420;-70
2024/04/03 03:25:19;;;;;;;4.60;2.53;;;11.20;99.90;;;;;;5035679;28;20189;-73
2024/04/03 03:27:45;;;;;;;4.57;2.30;;;11.20;99.90;;;;;;5035207;28;20181;-73
2024/04/03 03:30:11;;;;;;;5.33;3.20;;;11.10;99.90;;;;;;5033691;28;20185;-69
2024/04/03 03:32:36;;;;;;;3.43;2.50;;;11.10;99.90;;;;;;5035560;28;20712;-71
2024/04/03 03:35:02;;;;;;;3.00;2.30;;;11.10;99.90;;;;;;5034321;28;20188;-69
2024/04/03 03:37:28;;;;;;;7.10;2.97;;;11.10;99.90;;;;;;5034975;28;20190;-70
2024/04/03 03:39:53;;;;;;;6.63;3.00;;;11.00;99.90;;;;;;5034263;28;20310;-71
2024/04/03 03:42:19;;;;;;;4.33;2.90;;;11.00;99.90;;;;;;5035186;28;20198;-68
2024/04/03 03:44:45;;;;;;;3.27;2.30;;;11.00;99.90;;;;;;5035334;28;20178;-70
2024/04/03 03:47:10;;;;;;;3.27;2.40;;;11.00;99.90;;;;;;5033931;28;20774;-73
2024/04/03 03:52:36;;;;;;;3.73;2.90;;;11.00;99.90;;;;;;5034448;28;20224;-70
2024/04/03 03:55:02;;;;;;;4.67;2.67;;;11.00;99.90;;;;;;5033318;28;20436;-72
2024/04/03 03:57:30;;;;;;;4.40;2.70;;;11.00;99.90;;;;;;5034752;28;20448;-69
2024/04/03 03:59:57;;;;;;;5.20;3.17;;;11.00;99.90;;;;;;5033936;28;20487;-71
2024/04/03 04:02:23;;;;;;;6.10;3.00;;;11.00;99.90;;;;;;5035141;28;20432;-68
2024/04/03 04:04:50;;;;;;;8.00;2.73;;;11.00;99.90;;;;;;5034821;28;20429;-72
2024/04/03 04:07:20;;;;;;;4.27;2.90;;;11.00;99.90;;;;;;5034241;28;20876;-73
2024/04/03 04:09:49;;;;;;;4.03;3.03;;;11.00;99.90;;;;;;5034574;28;20432;-72
2024/04/03 04:12:15;;;;;;;5.47;4.90;;;11.00;99.90;;;;;;5034105;28;20496;-73
2024/04/03 04:14:41;;;;;;;5.80;3.27;;;10.90;99.90;;;;;;5035134;28;20433;-70
2024/04/03 04:17:07;;;;;;;4.63;3.73;;;10.90;99.90;;;;;;5034023;28;20440;-73
2024/04/03 04:19:33;;;;;;;9.63;3.80;;;10.90;99.90;;;;;;5034421;28;20495;-69
2024/04/03 04:21:58;;;;;;;7.20;4.03;;;10.80;99.90;;;;;;5033911;28;20793;-70
2024/04/03 04:24:24;;;;;;;5.60;4.23;;;10.80;99.90;;;;;;5034962;28;20197;-67
2024/04/03 04:26:50;;;;;;;6.23;4.80;;;10.80;99.90;;;;;;5034555;28;20289;-69
2024/04/03 04:29:15;;;;;;;7.27;5.07;;;10.80;99.90;;;;;;5034121;28;20190;-71
2024/04/03 04:31:41;;;;;;;7.67;5.90;;;10.70;99.90;;;;;;5034888;28;20265;-68
2024/04/03 04:34:07;;;;;;;8.37;5.70;;;10.70;99.90;;;;;;5033620;28;20716;-69
2024/04/03 04:36:32;;;;;;;7.60;5.47;;;10.70;99.90;;;;;;5034366;28;20664;-70
2024/04/03 04:38:58;;;;;;;7.00;6.20;;;10.60;99.90;;;;;;5033436;28;20217;-71
2024/04/03 04:41:25;;;;;;;10.97;5.50;;;10.60;99.90;;;;;;5035082;28;20186;-72
2024/04/03 04:43:50;;;;;;;10.67;6.70;;;10.60;99.90;;;;;;5038401;28;20222;-69
2024/04/03 04:46:16;;;;;;;9.70;5.60;;;10.50;99.90;;;;;;5039158;28;20777;-71
2024/04/03 04:48:42;;;;;;;8.60;5.43;;;10.60;99.90;;;;;;5037804;28;20182;-73
2024/04/03 04:51:07;;;;;;;7.60;5.70;;;10.60;99.90;;;;;;5037374;28;20280;-71
2024/04/03 04:53:33;;;;;;;10.20;6.20;;;10.60;99.90;;;;;;5038119;28;20770;-70
2024/04/03 04:56:06;;;;;;;9.90;6.37;;;10.70;99.90;;;;;;5035919;28;20208;-72
2024/04/03 04:58:32;;;;;;;6.83;5.73;;;10.70;99.90;;;;;;5037881;28;20221;-70
2024/04/03 05:01:08;;;;;;;7.97;5.30;;;10.70;99.90;;;;;;5069200;28;21034;-68
2024/04/03 05:03:36;;;;;;;9.17;5.80;;;10.70;99.90;;;;;;5036996;28;20185;-69
2024/04/03 05:06:03;;;;;;;7.73;5.23;;;10.60;99.90;;;;;;5068527;28;20452;-71
2024/04/03 05:08:29;;;;;;;6.93;4.80;;;10.60;99.90;;;;;;5037604;28;20440;-71
2024/04/03 05:10:57;;;;;;;5.93;4.53;;;10.60;99.90;;;;;;5037042;28;20444;-69
2024/04/03 05:13:29;;;;;;;6.53;4.67;;;10.60;99.90;;;;;;5037826;28;20434;-72
2024/04/03 05:15:55;;;;;;;5.43;4.93;;;10.60;99.90;;;;;;5035843;28;20975;-68
2024/04/03 05:18:21;;;;;;;5.83;4.90;;;10.60;99.90;;;;;;5037324;28;20968;-71
2024/04/03 05:20:46;;;;;;;9.50;5.47;;;10.60;99.90;;;;;;5037239;28;20435;-72
2024/04/03 05:23:12;;;;;;;6.70;4.83;;;10.60;99.90;;;;;;5036921;28;20463;-68
2024/04/03 05:25:38;;;;;;;6.73;5.73;;;10.60;99.90;;;;;;5037660;28;20715;-71
2024/04/03 05:28:07;;;;;;;6.20;4.37;;;10.60;99.90;;;;;;5037219;28;20201;-74
2024/04/03 05:30:37;;;;;;;6.43;4.27;;;10.60;99.90;;;;;;5037762;28;20185;-70
2024/04/03 05:33:04;;;;;;;5.20;3.70;;;10.60;99.90;;;;;;5037374;28;20444;-68
2024/04/03 05:35:30;;;;;;;8.40;4.10;;;10.60;99.90;;;;;;5039263;28;20449;-71
2024/04/03 05:37:56;;;;;;;6.03;4.10;;;10.60;99.90;;;;;;5037113;28;20432;-72
2024/04/03 05:40:22;;;;;;;6.33;3.70;;;10.60;99.90;;;;;;5037326;28;20612;-72
2024/04/03 05:42:48;;;;;;;7.83;3.63;;;10.60;99.90;;;;;;5039133;28;20459;-70
2024/04/03 05:45:14;;;;;;;6.00;3.47;;;10.60;99.90;;;;;;5034580;28;20448;-71
2024/04/03 05:47:39;;;;;;;6.20;4.00;;;10.70;99.90;;;;;;5036591;28;20174;-72
2024/04/03 05:50:06;;;;;;;4.80;3.60;;;10.70;99.90;;;;;;5035794;28;20742;-71
2024/04/03 05:52:36;;;;;;;6.27;3.63;;;10.60;99.90;;;;;;5042384;28;20194;-72
2024/04/03 05:55:02;;;;;;;11.07;4.80;;;10.60;99.90;;;;;;5067231;28;20443;-72
2024/04/03 05:57:28;;;;;;;5.70;3.17;;;10.60;99.90;;;;;;5037235;28;20444;-70
2024/04/03 05:59:53;;;;;;;6.23;3.50;;;10.60;99.90;;;;;;5035129;28;20571;-73
2024/04/03 06:02:20;;;;;;;4.43;3.83;;;10.60;99.90;;;;;;5036932;28;20856;-71
2024/04/03 06:04:45;;;;;;;6.43;3.50;;;10.60;99.90;;;;;;5034988;28;20183;-68
2024/04/03 06:07:11;;;;;;;4.83;3.17;;;10.60;99.90;;;;;;5037018;28;20444;-70
2024/04/03 06:09:37;;;;;;;4.97;3.33;;;10.70;99.90;;;;;;5036199;28;20193;-72
2024/04/03 06:12:03;;;;;;;3.37;3.07;;;10.60;99.90;;;;;;5067345;28;20186;-70
2024/04/03 06:14:28;;;;;;;3.73;2.10;;;10.60;99.90;;;;;;5036725;28;20182;-70
2024/04/03 06:16:54;;;;;;;3.23;2.37;;;10.70;99.90;;;;;;5033265;28;20507;-68
2024/04/03 06:19:20;;;;;;;3.30;2.90;;;10.70;99.90;;;;;;5032997;28;20221;-72
2024/04/03 06:21:45;;;;;;;4.30;2.30;;;10.70;99.90;;;;;;5034243;28;20182;-72
2024/04/03 06:24:11;;;;;;;7.80;3.10;;;10.70;99.90;;;;;;5034635;28;20217;-71
2024/04/03 06:26:37;;;;;;;5.93;2.37;;;10.80;99.90;;;;;;5034712;28;20304;-72
2024/04/03 06:29:03;;;;;;;3.70;2.20;;;10.80;99.90;;;;;;5033693;28;20201;-73
2024/04/03 06:31:30;;;;;;;3.67;2.13;;;10.80;99.90;;;;;;5035628;28;20174;-70
2024/04/03 06:33:58;;;;;;;5.73;2.27;;;10.80;99.90;;;;;;5033272;28;20421;-70
2024/04/03 06:36:25;;;;;;;3.77;2.63;;;10.80;99.90;;;;;;5035310;28;20424;-73
2024/04/03 06:38:51;;;;;;;5.03;2.57;;;10.90;99.90;;;;;;5035266;28;20480;-72
2024/04/03 06:41:16;;;;;;;4.53;2.20;;;10.90;99.90;;;;;;5035573;28;20450;-69
2024/04/03 06:43:42;;;;;;;7.17;2.57;;;11.00;99.90;;;;;;5035967;28;20221;-67
2024/04/03 06:46:08;;;;;;;2.33;2.10;;;11.00;99.90;;;;;;5067204;28;20185;-71
2024/04/03 06:48:34;;;;;;;3.80;2.27;;;11.00;99.90;;;;;;5036080;28;20186;-74
2024/04/03 06:51:00;;;;;;;7.10;2.37;;;11.00;99.90;;;;;;5050458;28;20185;-70
2024/04/03 06:53:26;;;;;;;3.53;1.50;;;11.00;99.90;;;;;;5034733;28;20525;-71
2024/04/03 06:55:59;;;;;;;4.60;2.50;;;11.00;99.90;;;;;;5035424;28;20186;-71
2024/04/03 06:58:26;;;;;;;7.00;2.17;;;11.00;99.90;;;;;;5034408;28;20796;-69
2024/04/03 07:00:52;;;;;;;5.33;2.37;;;11.00;99.90;;;;;;5066426;28;20785;-68
2024/04/03 07:03:18;;;;;;;3.23;1.70;;;11.00;99.90;;;;;;5035443;28;20447;-70
2024/04/03 07:05:44;;;;;;;4.57;2.20;;;11.10;99.90;;;;;;5033295;28;20202;-71
2024/04/03 07:08:12;;;;;;;2.97;2.47;;;11.00;99.90;;;;;;5036406;28;20243;-73
2024/04/03 07:10:39;;;;;;;10.27;2.13;;;11.00;99.90;;;;;;5036026;28;20432;-70
2024/04/03 07:13:05;;;;;;;3.57;1.70;;;11.00;99.90;;;;;;5035095;28;20433;-72
2024/04/03 07:15:33;;;;;;;3.50;2.00;;;11.00;99.90;;;;;;5036418;28;20448;-73
2024/04/03 07:18:02;;;;;;;4.07;2.00;;;11.00;99.90;;;;;;5034833;28;20471;-73
2024/04/03 07:20:32;;;;;;;5.67;2.57;;;11.00;99.90;;;;;;5035123;28;20476;-74
2024/04/03 07:22:59;;;;;;;4.20;2.23;;;11.10;99.90;;;;;;5036546;28;20940;-74
2024/04/03 07:25:25;;;;;;;4.70;1.80;;;11.10;99.90;;;;;;5035694;28;20444;-73
2024/04/03 07:27:52;;;;;;;7.80;2.20;;;11.10;99.90;;;;;;5035121;28;20447;-74
2024/04/03 07:30:19;;;;;;;3.50;1.63;;;11.10;99.90;;;;;;5034920;28;20436;-69
2024/04/03 07:32:45;;;;;;;3.43;2.00;;;11.10;99.90;;;;;;5035290;28;21164;-73
2024/04/03 07:35:11;;;;;;;3.73;1.70;;;11.10;99.90;;;;;;5035898;28;20445;-73
2024/04/03 07:37:44;;;;;;;5.63;2.00;;;11.10;99.90;;;;;;5035916;28;20653;-71
2024/04/03 07:40:11;;;;;;;4.63;1.80;;;11.10;99.90;;;;;;5035143;28;20304;-74
2024/04/03 07:42:40;;;;;;;3.73;1.73;;;11.20;99.90;;;;;;5035209;28;20649;-72
2024/04/03 07:45:10;;;;;;;5.20;2.40;;;11.10;99.90;;;;;;5036124;28;20441;-71
2024/04/03 07:47:36;;;;;;;2.80;1.53;;;11.10;99.90;;;;;;5035140;28;21003;-70
2024/04/03 07:50:05;;;;;;;1.83;1.40;;;11.10;99.90;;;;;;5035533;28;20428;-71
2024/04/03 07:52:32;;;;;;;4.00;1.70;;;11.10;99.90;;;;;;5035661;28;20481;-71
2024/04/03 07:54:58;;;;;;;2.53;2.33;;;11.10;99.90;;;;;;5034776;28;20570;-71
2024/04/03 07:57:23;;;;;;;4.97;2.07;;;11.10;99.90;;;;;;5035719;28;20543;-73
2024/04/03 07:59:49;;;;;;;2.60;1.60;;;11.10;99.90;;;;;;5066675;28;20217;-74
2024/04/03 08:02:15;;;;;;;3.47;1.63;;;11.10;99.90;;;;;;5033760;28;20549;-71
2024/04/03 08:04:41;;;;;;;6.93;2.60;;;11.10;99.90;;;;;;5032964;28;20468;-73
2024/04/03 08:07:08;;;;;;;3.73;1.80;;;11.10;99.90;;;;;;5032917;28;20669;-72
2024/04/03 08:09:35;;;;;;;3.30;1.63;;;11.10;99.90;;;;;;5033688;28;21172;-72
2024/04/03 08:12:01;;;;;;;3.10;1.47;;;11.20;99.90;;;;;;5032727;28;20462;-75
2024/04/03 08:14:27;;;;;;;2.87;1.73;;;11.20;99.90;;;;;;5033864;28;20498;-70
2024/04/03 08:16:56;;;;;;;3.20;1.07;;;11.30;99.90;;;;;;5036144;28;20429;-68
2024/04/03 08:19:25;;;;;;;5.63;1.93;;;11.30;99.90;;;;;;5039720;28;20475;-70
2024/04/03 08:21:51;;;;;;;4.77;2.07;;;11.30;99.90;;;;;;5038574;28;20444;-73
2024/04/03 08:24:17;;;;;;;2.97;1.57;;;11.30;99.90;;;;;;5039341;28;20433;-74
2024/04/03 08:26:43;;;;;;;4.37;2.20;;;11.30;99.90;;;;;;5038166;28;20214;-73
2024/04/03 08:29:09;;;;;;;3.87;1.63;;;11.40;99.90;;;;;;5038392;28;20498;-70
2024/04/03 08:31:35;;;;;;;4.23;2.10;;;11.40;99.90;;;;;;5039450;28;21185;-71
2024/04/03 08:34:01;;;;;;;2.70;1.50;;;11.40;99.90;;;;;;5039378;28;20431;-70
2024/04/03 08:36:26;;;;;;;5.23;1.70;;;11.40;99.90;;;;;;5037725;28;20436;-74
2024/04/03 08:38:53;;;;;;;3.90;2.37;;;11.40;99.90;;;;;;5038843;28;20218;-68
2024/04/03 08:41:19;;;;;;;2.90;1.90;;;11.40;99.90;;;;;;5038929;28;20204;-72
2024/04/03 08:43:48;;;;;;;4.23;1.40;;;11.40;99.90;;;;;;5038425;28;20997;-72
2024/04/03 08:46:15;;;;;;;2.50;1.60;;;11.40;99.90;;;;;;5038541;28;20437;-71
2024/04/03 08:48:41;;;;;;;1.60;1.27;;;11.50;99.90;;;;;;5038433;28;20416;-71
2024/04/03 08:51:06;;;;;;;2.50;1.43;;;11.50;99.90;;;;;;5038307;28;20775;-75
2024/04/03 08:53:32;;;;;;;2.40;1.40;;;11.50;99.90;;;;;;5039394;28;20190;-69
2024/04/03 08:55:59;;;;;;;2.33;1.30;;;11.50;99.90;;;;;;5037755;28;21247;-69
2024/04/03 08:58:26;;;;;;;4.83;1.80;;;11.50;99.90;;;;;;5038694;28;20560;-76
2024/04/03 09:00:52;;;;;;;1.50;1.10;;;11.50;99.90;;;;;;5036748;28;20507;-69
2024/04/03 09:03:21;;;;;;;2.40;1.60;;;11.50;99.90;;;;;;5037416;28;20432;-74
2024/04/03 09:05:52;;;;;;;2.90;1.20;;;11.50;99.90;;;;;;5037678;28;20894;-67
2024/04/03 09:08:17;;;;;;;5.73;1.47;;;11.50;99.90;;;;;;5038585;28;20437;-71
2024/04/03 09:13:38;;;;;;;9.50;2.80;;;11.50;99.90;;;;;;5043224;28;20234;-71
2024/04/03 09:16:04;;;;;;;4.00;1.60;;;11.50;99.90;;;;;;5038683;28;20602;-69
2024/04/03 09:18:30;;;;;;;2.00;1.00;;;11.50;99.90;;;;;;5037684;28;20188;-76
2024/04/03 09:20:56;;;;;;;1.80;1.40;;;11.60;99.90;;;;;;5037981;28;20432;-70
2024/04/03 09:23:22;;;;;;;4.30;1.60;;;11.60;99.90;;;;;;5038411;28;20190;-73
2024/04/03 09:25:48;;;;;;;4.93;1.57;;;11.60;99.90;;;;;;5037562;28;20182;-70
2024/04/03 09:28:14;;;;;;;2.87;1.20;;;11.70;99.90;;;;;;5037719;28;20801;-74
2024/04/03 09:30:48;;;;;;;2.00;0.97;;;11.70;99.90;;;;;;5037922;28;20459;-70
2024/04/03 09:33:14;;;;;;;1.60;1.20;;;11.80;99.90;;;;;;5037868;28;20437;-73
2024/04/03 09:35:42;;;;;;;2.30;1.30;;;11.80;99.90;;;;;;5036750;28;20801;-71
2024/04/03 09:38:10;;;;;;;1.70;1.00;;;11.90;99.90;;;;;;5037496;28;20450;-75
2024/04/03 09:40:37;;;;;;;3.60;1.23;;;11.80;99.90;;;;;;5036572;28;20520;-69
2024/04/03 09:43:12;;;;;;;2.73;1.20;;;11.90;99.90;;;;;;5039055;28;20436;-68
2024/04/03 09:45:38;;;;;;;2.90;1.00;;;11.80;99.90;;;;;;5040072;28;20428;-70
2024/04/03 09:48:09;;;;;;;0.97;0.87;;;11.90;99.90;;;;;;5038944;28;20437;-74
2024/04/03 09:50:44;;;;;;;2.30;1.13;;;11.90;99.90;;;;;;5037713;28;20429;-72
2024/04/03 09:53:21;;;;;;;2.70;1.50;;;11.90;99.90;;;;;;5037034;28;20934;-74
2024/04/03 09:55:50;;;;;;;3.00;1.03;;;11.90;99.90;;;;;;5035806;28;20429;-73
2024/04/03 09:58:19;;;;;;;1.90;1.10;;;11.90;99.90;;;;;;5037849;28;20425;-73
2024/04/03 10:00:56;;;;;;;1.90;0.83;;;11.90;99.90;;;;;;5037123;28;20480;-71
2024/04/03 10:03:23;;;;;;;1.40;0.97;;;12.00;99.90;;;;;;5037702;28;20431;-72
2024/04/03 10:06:01;;;;;;;1.13;0.90;;;12.00;99.90;;;;;;5035926;28;20534;-69
2024/04/03 10:08:37;;;;;;;2.20;1.40;;;11.90;99.90;;;;;;5037474;28;21050;-69
2024/04/03 10:11:10;;;;;;;1.43;1.13;;;12.00;99.90;;;;;;5037374;28;20470;-73
2024/04/03 10:13:40;;;;;;;1.70;1.10;;;12.00;99.90;;;;;;5037634;28;20437;-76
2024/04/03 10:16:14;;;;;;;1.03;0.93;;;12.00;99.90;;;;;;5037029;28;20955;-71
2024/04/03 10:18:40;;;;;;;3.80;1.07;;;12.00;99.90;;;;;;5036562;28;20433;-70
2024/04/03 10:21:10;;;;;;;1.47;1.10;;;12.10;99.90;;;;;;5037081;28;20472;-72
2024/04/03 10:23:43;;;;;;;2.00;1.10;;;12.10;99.90;;;;;;5035905;28;20196;-72
2024/04/03 10:26:09;;;;;;;1.07;0.97;;;12.10;99.90;;;;;;5037030;28;20467;-73
2024/04/03 10:28:36;;;;;;;0.73;0.70;;;12.10;99.90;;;;;;5068557;28;20439;-71
2024/04/03 10:31:02;;;;;;;2.93;1.13;;;12.10;99.90;;;;;;5037405;28;20428;-70
2024/04/03 10:33:28;;;;;;;0.90;0.77;;;12.10;99.90;;;;;;5036516;28;21044;-71
2024/04/03 10:35:55;;;;;;;1.37;0.87;;;12.10;99.90;;;;;;5068844;28;20780;-69
2024/04/03 10:38:21;;;;;;;0.90;0.70;;;12.10;99.90;;;;;;5036518;28;21036;-72
2024/04/03 10:40:49;;;;;;;2.93;1.10;;;12.20;99.90;;;;;;5036227;28;20491;-72
2024/04/03 10:43:15;;;;;;;2.10;1.13;;;12.20;99.90;;;;;;5036563;28;20521;-70
2024/04/03 10:45:46;;;;;;;0.93;0.87;;;12.20;99.90;;;;;;5036523;28;20457;-76
2024/04/03 10:48:12;;;;;;;3.57;0.90;;;12.30;99.90;;;;;;5036380;28;20222;-75
2024/04/03 10:50:38;;;;;;;1.13;0.80;;;12.30;99.90;;;;;;5036137;28;20517;-70
2024/04/03 10:53:09;;;;;;;2.33;1.10;;;12.40;99.90;;;;;;5036894;28;20546;-69
2024/04/03 10:55:36;;;;;;;0.80;0.70;;;12.40;99.90;;;;;;5035176;28;20444;-71
2024/04/03 10:58:03;;;;;;;1.23;1.10;;;12.30;99.90;;;;;;5035574;28;20439;-70
2024/04/03 11:00:40;;;;;;;1.57;0.63;;;12.40;99.90;;;;;;5036143;28;20476;-70
2024/04/03 11:03:06;;;;;;;1.10;0.73;;;12.50;99.90;;;;;;5036302;28;20433;-71
2024/04/03 11:05:34;;;;;;;2.80;0.97;;;12.50;99.90;;;;;;5036173;28;20468;-70
2024/04/03 11:08:01;;;;;;;0.90;0.80;;;12.40;99.90;;;;;;5036734;28;20428;-70
2024/04/03 11:10:28;;;;;;;1.37;0.93;;;12.50;99.90;;;;;;5036343;28;20524;-71
2024/04/03 11:13:07;;;;;;;1.07;0.70;;;12.50;99.90;;;;;;5037488;28;20416;-72
2024/04/03 11:15:33;;;;;;;2.13;1.00;;;12.40;99.90;;;;;;5036550;28;20467;-72
2024/04/03 11:17:59;;;;;;;0.70;0.70;;;12.40;99.90;;;;;;5035966;28;20431;-70
2024/04/03 11:20:34;;;;;;;2.80;1.00;;;12.30;99.90;;;;;;5035928;28;20476;-72
2024/04/03 11:23:00;;;;;;;1.33;0.93;;;12.30;99.90;;;;;;5035843;28;20562;-73
2024/04/03 11:25:26;;;;;;;1.00;0.80;;;12.30;99.90;;;;;;5036544;28;20965;-74
2024/04/03 11:27:52;;;;;;;1.00;0.63;;;12.30;99.90;;;;;;5036153;28;20978;-71
2024/04/03 11:30:18;;;;;;;1.60;1.00;;;12.30;99.90;;;;;;5036104;28;20523;-72
2024/04/03 11:32:44;;;;;;;2.40;0.90;;;12.30;99.90;;;;;;5035618;28;20511;-75
2024/04/03 11:35:10;;;;;;;0.97;0.87;;;12.30;99.90;;;;;;5036564;28;20429;-70
2024/04/03 11:37:36;;;;;;;1.10;0.90;;;12.30;99.90;;;;;;5035093;28;20186;-69
2024/04/03 11:40:04;;;;;;;1.30;0.90;;;12.30;99.90;;;;;;5034966;28;20217;-69
2024/04/03 11:42:31;;;;;;;1.87;1.07;;;12.30;99.90;;;;;;5034684;28;20251;-71
2024/04/03 11:44:56;;;;;;;1.50;0.77;;;12.40;99.90;;;;;;5035218;28;20485;-74
2024/04/03 11:47:22;;;;;;;2.00;1.10;;;12.40;99.90;;;;;;5034563;28;20911;-67
2024/04/03 11:49:47;;;;;;;0.90;0.87;;;12.50;99.90;;;;;;5066747;28;20188;-69
2024/04/03 11:52:13;;;;;;;1.17;0.77;;;12.50;99.90;;;;;;5034703;28;20318;-69
2024/04/03 11:54:39;;;;;;;1.20;1.10;;;12.50;99.90;;;;;;5034519;28;20222;-70
2024/04/03 11:57:05;;;;;;;1.10;0.90;;;12.60;99.90;;;;;;5035813;28;20210;-72
2024/04/03 11:59:31;;;;;;;0.83;0.77;;;12.60;99.90;;;;;;5034246;28;20214;-73
2024/04/03 12:01:56;;;;;;;1.20;0.90;;;12.70;99.90;;;;;;5034807;28;20439;-72
2024/04/03 12:04:23;;;;;;;4.13;1.47;;;12.70;99.90;;;;;;5034395;28;20294;-75
2024/04/03 12:06:49;;;;;;;0.93;0.70;;;12.80;99.90;;;;;;5034409;28;20204;-68
2024/04/03 12:09:14;;;;;;;0.83;0.60;;;12.90;99.90;;;;;;5034083;28;20429;-71
2024/04/03 12:11:40;;;;;;;8.67;1.60;;;13.00;99.90;;;;;;5033028;28;20208;-68
2024/04/03 12:14:08;;;;;;;1.10;0.90;;;13.20;99.90;;;;;;5034770;28;20252;-69
2024/04/03 12:16:37;;;;;;;1.57;1.00;;;13.20;99.90;;;;;;5034036;28;20182;-73
2024/04/03 12:21:47;;;;;;;2.20;0.90;;;13.10;99.90;;;;;;5033250;28;20490;-70
2024/04/03 12:24:14;;;;;;;1.90;0.97;;;13.00;99.90;;;;;;5033048;28;20448;-72
2024/04/03 12:26:41;;;;;;;1.00;0.80;;;13.00;99.90;;;;;;5064485;28;21241;-75
2024/04/03 12:29:07;;;;;;;2.03;0.93;;;13.10;99.90;;;;;;5032458;28;20506;-70
2024/04/03 12:31:33;;;;;;;0.80;0.73;;;13.10;99.90;;;;;;5032195;28;20421;-73
2024/04/03 12:33:59;;;;;;;0.90;0.90;;;13.00;99.90;;;;;;5031839;28;20890;-71
2024/04/03 12:36:26;;;;;;;2.80;1.00;;;12.90;99.90;;;;;;5033941;28;20443;-70
2024/04/03 12:38:53;;;;;;;1.13;0.87;;;12.80;99.90;;;;;;5035034;28;20525;-69
2024/04/03 12:41:23;;;;;;;0.63;0.63;;;12.80;99.90;;;;;;5033395;28;21005;-69
2024/04/03 12:43:49;;;;;;;2.43;0.80;;;12.80;99.90;;;;;;5034441;28;20515;-70
2024/04/03 12:46:14;;;;;;;0.73;0.70;;;12.80;99.90;;;;;;5034997;28;20518;-72
2024/04/03 12:48:40;;;;;;;1.00;0.80;;;12.80;99.90;;;;;;5033348;28;20213;-74
2024/04/03 12:51:06;;;;;;;1.27;1.00;;;12.80;99.90;;;;;;5033987;28;20201;-70